OPA Logo
 
ASOS:
At:2021.06.22 1135 UTC
Wind:230° @ 6KT
Viz: 10 mile(s)
Sky: clear
Temp: 66 F (19 C)
DewP: 48 F (9 C)
RH: 52%
Baro: 29.97 in.
ob: KBDN 221135Z AUTO 23006KT 10SM CLR 19/09 A2997 RMK AO2

ASOS: KRDM
At:2021.06.22 1056 UTC
Wind:180° @ 7KT
Viz: 10 mile(s)
Sky: clear
Temp: 66.9 F (19.4 C)
DewP: 51.1 F (10.6 C)
RH: 56%
Baro: 29.93 in.
ob: KRDM 221056Z AUTO 18007KT 10SM CLR 19/11 A2993 RMK AO2 SLP099 T01940106
Apache-SSL Logo

Valid HTML 4.01!

Central Oregon OPA Chapter

Calendar


Other Calendar pages

Oregon Pilots Association Events Calendar

Washington Pilots Association Events


Web page by: gem@rellim.com